createdAt,value
2022-08-07T00:00:04.398Z,1013.6
2022-08-07T00:01:12.593Z,1013.5
2022-08-07T00:02:36.593Z,1013.5
2022-08-07T00:03:04.425Z,1013.5
2022-08-07T00:04:04.440Z,1013.5
2022-08-07T00:05:05.778Z,1013.5
2022-08-07T00:06:04.344Z,1013.5
2022-08-07T00:07:05.202Z,1013.5
2022-08-07T00:08:04.419Z,1013.4
2022-08-07T00:09:16.712Z,1013.5
2022-08-07T00:10:25.487Z,1013.5
2022-08-07T00:11:04.907Z,1013.5
2022-08-07T00:12:04.476Z,1013.5
2022-08-07T00:13:17.489Z,1013.4
2022-08-07T00:14:04.332Z,1013.5
2022-08-07T00:15:04.346Z,1013.5
2022-08-07T00:16:04.349Z,1013.5
2022-08-07T00:17:04.347Z,1013.5
2022-08-07T00:18:04.346Z,1013.5
2022-08-07T00:19:05.664Z,1013.5
2022-08-07T00:20:04.385Z,1013.5
2022-08-07T00:21:07.987Z,1013.5
2022-08-07T00:22:04.338Z,1013.4
2022-08-07T00:23:04.343Z,1013.4
2022-08-07T00:24:04.461Z,1013.4
2022-08-07T00:25:04.359Z,1013.4
2022-08-07T00:26:18.903Z,1013.4
2022-08-07T00:27:07.378Z,1013.4
2022-08-07T00:28:04.349Z,1013.4
2022-08-07T00:29:04.344Z,1013.4
2022-08-07T00:30:04.341Z,1013.4
2022-08-07T00:31:06.456Z,1013.4
2022-08-07T00:32:04.355Z,1013.4
2022-08-07T00:33:04.361Z,1013.4
2022-08-07T00:34:04.376Z,1013.3
2022-08-07T00:35:04.336Z,1013.3
2022-08-07T00:36:04.345Z,1013.3
2022-08-07T00:37:05.037Z,1013.3
2022-08-07T00:38:04.391Z,1013.3
2022-08-07T00:39:04.389Z,1013.3
2022-08-07T00:40:04.352Z,1013.3
2022-08-07T00:41:04.385Z,1013.3
2022-08-07T00:42:05.456Z,1013.3
2022-08-07T00:43:04.401Z,1013.3
2022-08-07T00:44:04.345Z,1013.3
2022-08-07T00:45:06.994Z,1013.3
2022-08-07T00:46:04.356Z,1013.3
2022-08-07T00:47:06.324Z,1013.3
2022-08-07T00:48:07.584Z,1013.3
2022-08-07T00:49:04.377Z,1013.3
2022-08-07T00:50:20.670Z,1013.3
2022-08-07T00:51:04.375Z,1013.3
2022-08-07T00:52:04.345Z,1013.3
2022-08-07T00:53:04.391Z,1013.3
2022-08-07T00:54:04.420Z,1013.3
2022-08-07T00:55:04.625Z,1013.3
2022-08-07T00:56:04.369Z,1013.3
2022-08-07T00:57:04.371Z,1013.1
2022-08-07T00:58:04.388Z,1013.2
2022-08-07T00:59:04.522Z,1013.2
2022-08-07T01:00:04.480Z,1013.3
2022-08-07T01:01:04.506Z,1013.2
2022-08-07T01:02:08.927Z,1013.3
2022-08-07T01:03:04.459Z,1013.3
2022-08-07T01:04:04.532Z,1013.3
2022-08-07T01:05:04.476Z,1013.2
2022-08-07T01:06:04.471Z,1013.2
2022-08-07T01:07:04.466Z,1013.3
2022-08-07T01:08:04.347Z,1013.3
2022-08-07T01:09:04.413Z,1013.3
2022-08-07T01:10:10.628Z,1013.3
2022-08-07T01:12:04.762Z,1013.3
2022-08-07T01:12:33.396Z,1013.2
2022-08-07T01:13:04.380Z,1013.2
2022-08-07T01:14:04.357Z,1013.2
2022-08-07T01:15:04.550Z,1013.2
2022-08-07T01:16:05.896Z,1013.3
2022-08-07T01:17:07.215Z,1013.3
2022-08-07T01:18:04.354Z,1013.3
2022-08-07T01:19:04.363Z,1013.3
2022-08-07T01:20:04.385Z,1013.3
2022-08-07T01:21:04.391Z,1013.3
2022-08-07T01:22:08.912Z,1013.3
2022-08-07T01:23:12.388Z,1013.3
2022-08-07T01:24:04.377Z,1013.3
2022-08-07T01:25:20.742Z,1013.3
2022-08-07T01:26:04.372Z,1013.3
2022-08-07T01:27:04.364Z,1013.3
2022-08-07T01:28:04.643Z,1013.3
2022-08-07T01:30:07.356Z,1013.3
2022-08-07T01:30:14.798Z,1013.3
2022-08-07T01:31:04.358Z,1013.3
2022-08-07T01:32:05.331Z,1013.3
2022-08-07T01:33:04.373Z,1013.3
2022-08-07T01:34:04.406Z,1013.3
2022-08-07T01:35:04.353Z,1013.3
2022-08-07T01:36:06.542Z,1013.3
2022-08-07T01:37:04.381Z,1013.3
2022-08-07T01:38:04.369Z,1013.3
2022-08-07T01:39:10.240Z,1013.4
2022-08-07T01:40:04.446Z,1013.4
2022-08-07T01:41:04.352Z,1013.3
2022-08-07T01:42:37.696Z,1013.3
2022-08-07T01:43:04.425Z,1013.4
2022-08-07T01:44:04.380Z,1013.3
2022-08-07T01:45:04.387Z,1013.4
2022-08-07T01:46:04.367Z,1013.3
2022-08-07T01:47:14.432Z,1013.4
2022-08-07T01:48:29.856Z,1013.3
2022-08-07T01:49:04.497Z,1013.3
2022-08-07T01:50:04.366Z,1013.3
2022-08-07T01:51:24.078Z,1013.3
2022-08-07T01:52:04.848Z,1013.3
2022-08-07T01:53:08.661Z,1013.3
2022-08-07T01:54:11.784Z,1013.3
2022-08-07T01:55:04.383Z,1013.3
2022-08-07T01:56:04.409Z,1013.3
2022-08-07T01:57:04.381Z,1013.3
2022-08-07T01:58:26.885Z,1013.3
2022-08-07T01:59:04.374Z,1013.3
2022-08-07T02:00:04.383Z,1013.3
2022-08-07T02:01:10.230Z,1013.3
2022-08-07T02:02:06.304Z,1013.3
2022-08-07T02:03:19.483Z,1013.3
2022-08-07T02:04:04.521Z,1013.3
2022-08-07T02:05:04.791Z,1013.3
2022-08-07T02:06:30.911Z,1013.3
2022-08-07T02:07:04.378Z,1013.3
2022-08-07T02:08:04.395Z,1013.3
2022-08-07T02:09:04.658Z,1013.2
2022-08-07T02:10:04.412Z,1013.3
2022-08-07T02:11:04.393Z,1013.1
2022-08-07T02:12:05.212Z,1013.2
2022-08-07T02:13:04.401Z,1013.3
2022-08-07T02:14:04.371Z,1013.1
2022-08-07T02:15:06.041Z,1013.1
2022-08-07T02:16:04.379Z,1013.2
2022-08-07T02:17:04.385Z,1013.2
2022-08-07T02:18:04.404Z,1013.2
2022-08-07T02:19:05.529Z,1013.1
2022-08-07T02:20:17.305Z,1013.1
2022-08-07T02:21:06.313Z,1013.1
2022-08-07T02:22:04.585Z,1013.1
2022-08-07T02:23:04.385Z,1013.1
2022-08-07T02:24:04.410Z,1013.2
2022-08-07T02:25:07.037Z,1013.1
2022-08-07T02:26:30.995Z,1013.1
2022-08-07T02:27:34.284Z,1013.1
2022-08-07T02:28:04.671Z,1013.1
2022-08-07T02:29:05.450Z,1013.1
2022-08-07T02:30:07.161Z,1013.1
2022-08-07T02:31:10.281Z,1013.1
2022-08-07T02:32:04.548Z,1013.0
2022-08-07T02:33:09.612Z,1013.0
2022-08-07T02:34:11.190Z,1013.0
2022-08-07T02:35:06.194Z,1013.0
2022-08-07T02:36:26.999Z,1013.0
2022-08-07T02:37:08.089Z,1013.0
2022-08-07T02:38:04.556Z,1013.0
2022-08-07T02:39:15.987Z,1012.9
2022-08-07T02:40:30.137Z,1012.9
2022-08-07T02:41:04.669Z,1012.9
2022-08-07T02:42:10.278Z,1012.9
2022-08-07T02:43:07.762Z,1012.9
2022-08-07T02:44:04.997Z,1013.0
2022-08-07T02:45:07.238Z,1013.0
2022-08-07T02:46:04.559Z,1012.9
2022-08-07T02:47:04.555Z,1013.0
2022-08-07T02:48:04.559Z,1013.0
2022-08-07T02:49:04.555Z,1013.0
2022-08-07T02:50:04.559Z,1013.0
2022-08-07T02:51:04.624Z,1012.9
2022-08-07T02:52:04.554Z,1012.9
2022-08-07T02:53:06.345Z,1013.0
2022-08-07T02:54:05.486Z,1012.9
2022-08-07T02:55:04.682Z,1012.9
2022-08-07T02:56:10.094Z,1012.9
2022-08-07T02:57:06.538Z,1012.9
2022-08-07T02:58:04.722Z,1012.9
2022-08-07T02:59:04.608Z,1012.9
2022-08-07T03:00:10.369Z,1012.9
2022-08-07T03:01:04.722Z,1012.9
2022-08-07T03:02:04.649Z,1012.9
2022-08-07T03:03:06.228Z,1012.9
2022-08-07T03:04:07.177Z,1012.9
2022-08-07T03:05:05.087Z,1012.9
2022-08-07T03:06:04.819Z,1012.8
2022-08-07T03:07:10.368Z,1012.8
2022-08-07T03:08:10.210Z,1012.9
2022-08-07T03:09:04.548Z,1012.8
2022-08-07T03:10:04.579Z,1012.9
2022-08-07T03:11:04.563Z,1012.9
2022-08-07T03:12:04.551Z,1013.0
2022-08-07T03:13:04.585Z,1012.9
2022-08-07T03:14:04.569Z,1012.9
2022-08-07T03:15:07.398Z,1012.9
2022-08-07T03:16:04.567Z,1013.0
2022-08-07T03:17:04.686Z,1013.0
2022-08-07T03:18:04.550Z,1012.9
2022-08-07T03:19:04.931Z,1013.0
2022-08-07T03:20:04.562Z,1013.0
2022-08-07T03:21:04.581Z,1013.0
2022-08-07T03:22:04.581Z,1013.0
2022-08-07T03:24:26.672Z,1013.0
2022-08-07T03:24:32.608Z,1012.9
2022-08-07T03:25:04.577Z,1012.9
2022-08-07T03:26:04.610Z,1012.9
2022-08-07T03:27:04.555Z,1012.9
2022-08-07T03:28:09.685Z,1012.9
2022-08-07T03:29:04.564Z,1012.9
2022-08-07T03:30:04.561Z,1012.9
2022-08-07T03:31:04.581Z,1012.9
2022-08-07T03:32:04.584Z,1012.9
2022-08-07T03:33:04.598Z,1012.9
2022-08-07T03:34:04.571Z,1012.8
2022-08-07T03:35:17.650Z,1012.8
2022-08-07T03:36:04.602Z,1012.8
2022-08-07T03:37:12.377Z,1012.8
2022-08-07T03:38:05.833Z,1012.8
2022-08-07T03:39:05.403Z,1012.8
2022-08-07T03:40:15.188Z,1012.8
2022-08-07T03:41:04.596Z,1012.8
2022-08-07T03:42:04.571Z,1012.8
2022-08-07T03:43:04.562Z,1012.8
2022-08-07T03:44:04.573Z,1012.8
2022-08-07T03:45:04.582Z,1012.8
2022-08-07T03:46:04.558Z,1012.9
2022-08-07T03:47:11.021Z,1012.8
2022-08-07T03:48:04.601Z,1012.8
2022-08-07T03:49:04.601Z,1012.9
2022-08-07T03:50:05.816Z,1012.9
2022-08-07T03:51:04.633Z,1012.9
2022-08-07T03:52:04.579Z,1012.9
2022-08-07T03:53:04.563Z,1012.9
2022-08-07T03:54:35.167Z,1012.9
2022-08-07T03:55:06.564Z,1012.9
2022-08-07T03:56:05.159Z,1012.9
2022-08-07T03:57:07.135Z,1012.9
2022-08-07T03:58:35.449Z,1012.9
2022-08-07T03:59:14.793Z,1012.9
2022-08-07T04:00:04.610Z,1012.9
2022-08-07T04:01:04.616Z,1012.9
2022-08-07T04:02:04.609Z,1012.9
2022-08-07T04:03:05.200Z,1013.0
2022-08-07T04:04:04.957Z,1013.0
2022-08-07T04:05:05.688Z,1013.0
2022-08-07T04:06:04.580Z,1013.0
2022-08-07T04:07:16.717Z,1013.0
2022-08-07T04:08:04.721Z,1013.0
2022-08-07T04:09:04.592Z,1013.0
2022-08-07T04:10:04.586Z,1013.0
2022-08-07T04:12:24.614Z,1013.0
2022-08-07T04:12:32.373Z,1013.0
2022-08-07T04:13:04.571Z,1013.0
2022-08-07T04:14:10.491Z,1013.0
2022-08-07T04:15:05.058Z,1012.9
2022-08-07T04:16:04.573Z,1012.9
2022-08-07T04:17:04.565Z,1012.9
2022-08-07T04:18:57.368Z,1013.0
2022-08-07T04:19:14.817Z,1012.9
2022-08-07T04:22:07.827Z,1013.0
2022-08-07T04:22:20.193Z,1013.0
2022-08-07T04:23:06.301Z,1013.0
2022-08-07T04:24:07.743Z,1013.0
2022-08-07T04:25:08.779Z,1013.0
2022-08-07T04:26:04.628Z,1013.1
2022-08-07T04:27:04.533Z,1013.0
2022-08-07T04:28:04.490Z,1013.0
2022-08-07T04:29:04.480Z,1013.0
2022-08-07T04:30:05.067Z,1013.0
2022-08-07T04:31:04.494Z,1013.0
2022-08-07T04:32:10.741Z,1013.0
2022-08-07T04:33:07.200Z,1013.0
2022-08-07T04:34:04.643Z,1013.0
2022-08-07T04:35:05.377Z,1013.0
2022-08-07T04:36:06.461Z,1013.1
2022-08-07T04:37:08.129Z,1013.0
2022-08-07T04:38:05.536Z,1013.1
2022-08-07T04:39:04.619Z,1013.1
2022-08-07T04:40:04.530Z,1013.1
2022-08-07T04:41:04.501Z,1013.1
2022-08-07T04:42:04.521Z,1013.1
2022-08-07T04:43:04.479Z,1013.1
2022-08-07T04:44:11.951Z,1013.1
2022-08-07T04:45:08.190Z,1013.1
2022-08-07T04:46:04.497Z,1013.2
2022-08-07T04:47:08.581Z,1013.3
2022-08-07T04:48:06.135Z,1013.3
2022-08-07T04:49:17.677Z,1013.3
2022-08-07T04:50:04.906Z,1013.3
2022-08-07T04:51:04.473Z,1013.3
2022-08-07T04:52:04.516Z,1013.3
2022-08-07T04:53:04.483Z,1013.3
2022-08-07T04:54:06.202Z,1013.3
2022-08-07T04:55:14.919Z,1013.3
2022-08-07T04:58:38.812Z,1013.3
2022-08-07T05:00:11.023Z,1013.3
2022-08-07T05:00:30.607Z,1013.3
2022-08-07T05:01:04.569Z,1013.3
2022-08-07T05:02:04.495Z,1013.3
2022-08-07T05:03:17.152Z,1013.3
2022-08-07T05:04:08.869Z,1013.3
2022-08-07T05:05:11.553Z,1013.3
2022-08-07T05:06:19.111Z,1013.3
2022-08-07T05:07:19.617Z,1013.3
2022-08-07T05:08:04.522Z,1013.3
2022-08-07T05:09:04.559Z,1013.3
2022-08-07T05:10:04.764Z,1013.4
2022-08-07T05:11:04.514Z,1013.4
2022-08-07T05:12:04.745Z,1013.4
2022-08-07T05:14:44.294Z,1013.4
2022-08-07T05:15:04.990Z,1013.4
2022-08-07T05:15:35.792Z,1013.4
2022-08-07T05:16:05.168Z,1013.4
2022-08-07T05:17:05.880Z,1013.4
2022-08-07T05:18:08.549Z,1013.4
2022-08-07T05:19:04.425Z,1013.4
2022-08-07T05:20:07.785Z,1013.4
2022-08-07T05:21:04.573Z,1013.5
2022-08-07T05:22:04.788Z,1013.5
2022-08-07T05:23:04.419Z,1013.5
2022-08-07T05:24:04.418Z,1013.5
2022-08-07T05:25:08.617Z,1013.5
2022-08-07T05:26:13.221Z,1013.4
2022-08-07T05:27:04.409Z,1013.5
2022-08-07T05:28:20.811Z,1013.5
2022-08-07T05:29:04.615Z,1013.5
2022-08-07T05:30:04.425Z,1013.5
2022-08-07T05:31:04.428Z,1013.5
2022-08-07T05:32:04.430Z,1013.5
2022-08-07T05:33:04.412Z,1013.5
2022-08-07T05:34:05.806Z,1013.6
2022-08-07T05:35:04.433Z,1013.6
2022-08-07T05:36:04.425Z,1013.5
2022-08-07T05:37:05.689Z,1013.6
2022-08-07T05:38:08.436Z,1013.5
2022-08-07T05:40:04.952Z,1013.6
2022-08-07T05:40:18.896Z,1013.6
2022-08-07T05:41:05.428Z,1013.6
2022-08-07T05:42:07.450Z,1013.6
2022-08-07T05:43:04.425Z,1013.6
2022-08-07T05:44:12.013Z,1013.7
2022-08-07T05:45:26.300Z,1013.7
2022-08-07T05:46:04.466Z,1013.7
2022-08-07T05:47:18.092Z,1013.7
2022-08-07T05:48:05.026Z,1013.7
2022-08-07T05:49:12.094Z,1013.7
2022-08-07T05:50:04.443Z,1013.7
2022-08-07T05:51:04.480Z,1013.7
2022-08-07T05:52:04.439Z,1013.7
2022-08-07T05:53:04.463Z,1013.7
2022-08-07T05:54:08.733Z,1013.7
2022-08-07T05:55:10.672Z,1013.7
2022-08-07T05:56:05.871Z,1013.7
2022-08-07T05:57:04.994Z,1013.7
2022-08-07T05:58:04.450Z,1013.7
2022-08-07T05:59:04.418Z,1013.7
2022-08-07T06:00:04.465Z,1013.7
2022-08-07T06:01:05.058Z,1013.7
2022-08-07T06:02:31.128Z,1013.7
2022-08-07T06:03:04.619Z,1013.7
2022-08-07T06:04:04.638Z,1013.7
2022-08-07T06:05:04.624Z,1013.7
2022-08-07T06:06:04.610Z,1013.7
2022-08-07T06:07:04.648Z,1013.7
2022-08-07T06:08:14.802Z,1013.7
2022-08-07T06:09:05.086Z,1013.8
2022-08-07T06:10:06.099Z,1013.7
2022-08-07T06:11:04.607Z,1013.7
2022-08-07T06:12:04.608Z,1013.7
2022-08-07T06:13:13.436Z,1013.8
2022-08-07T06:14:12.957Z,1013.8
2022-08-07T06:15:05.552Z,1013.8
2022-08-07T06:16:04.109Z,1013.8
2022-08-07T06:17:07.105Z,1013.8
2022-08-07T06:18:04.028Z,1013.8
2022-08-07T06:19:04.043Z,1013.8
2022-08-07T06:20:04.717Z,1013.8
2022-08-07T06:22:15.779Z,1013.8
2022-08-07T06:22:27.267Z,1013.8
2022-08-07T06:23:46.528Z,1013.8
2022-08-07T06:24:58.064Z,1013.8
2022-08-07T06:25:12.063Z,1013.8
2022-08-07T06:26:21.534Z,1013.8
2022-08-07T06:27:04.199Z,1013.8
2022-08-07T06:28:06.167Z,1013.8
2022-08-07T06:29:06.525Z,1013.8
2022-08-07T06:30:04.216Z,1013.8
2022-08-07T06:31:04.217Z,1013.7
2022-08-07T06:32:04.236Z,1013.7
2022-08-07T06:33:04.217Z,1013.7
2022-08-07T06:34:04.243Z,1013.8
2022-08-07T06:35:17.644Z,1013.8
2022-08-07T06:36:12.815Z,1013.8
2022-08-07T06:37:04.299Z,1013.8
2022-08-07T06:38:04.230Z,1013.7
2022-08-07T06:40:17.984Z,1013.7
2022-08-07T06:40:27.096Z,1013.7
2022-08-07T06:41:04.283Z,1013.8
2022-08-07T06:42:04.316Z,1013.7
2022-08-07T06:43:04.253Z,1013.8
2022-08-07T06:44:06.715Z,1013.8
2022-08-07T06:45:04.270Z,1013.8
2022-08-07T06:46:04.224Z,1013.8
2022-08-07T06:47:12.506Z,1013.8
2022-08-07T06:48:04.447Z,1013.8
2022-08-07T06:49:04.723Z,1013.7
2022-08-07T06:50:04.232Z,1013.7
2022-08-07T06:51:08.192Z,1013.7
2022-08-07T06:52:07.241Z,1013.7
2022-08-07T06:53:04.545Z,1013.6
2022-08-07T06:55:28.774Z,1013.6
2022-08-07T06:56:00.942Z,1013.7
2022-08-07T06:56:07.558Z,1013.7
2022-08-07T06:57:04.226Z,1013.6
2022-08-07T06:58:04.508Z,1013.6
2022-08-07T07:00:12.994Z,1013.6
2022-08-07T07:00:21.542Z,1013.6
2022-08-07T07:01:04.226Z,1013.7
2022-08-07T07:02:04.329Z,1013.7
2022-08-07T07:03:10.588Z,1013.7
2022-08-07T07:04:28.612Z,1013.6
2022-08-07T07:05:04.249Z,1013.6
2022-08-07T07:06:06.264Z,1013.7
2022-08-07T07:07:10.721Z,1013.7
2022-08-07T07:08:07.170Z,1013.7
2022-08-07T07:09:04.307Z,1013.7
2022-08-07T07:10:04.220Z,1013.7
2022-08-07T07:11:14.135Z,1013.7
2022-08-07T07:12:16.556Z,1013.7
2022-08-07T07:13:04.233Z,1013.7
2022-08-07T07:14:04.248Z,1013.7
2022-08-07T07:15:04.248Z,1013.7
2022-08-07T07:16:04.250Z,1013.7
2022-08-07T07:17:04.287Z,1013.7
2022-08-07T07:18:05.503Z,1013.7
2022-08-07T07:19:54.557Z,1013.7
2022-08-07T07:20:04.275Z,1013.7
2022-08-07T07:21:04.230Z,1013.7
2022-08-07T07:22:35.607Z,1013.7
2022-08-07T07:24:09.879Z,1013.7
2022-08-07T07:24:16.144Z,1013.7
2022-08-07T07:26:31.696Z,1013.7
2022-08-07T07:26:40.783Z,1013.6
2022-08-07T07:27:04.273Z,1013.7
2022-08-07T07:28:29.490Z,1013.7
2022-08-07T07:29:40.657Z,1013.7
2022-08-07T07:30:08.871Z,1013.7
2022-08-07T07:31:04.233Z,1013.7
2022-08-07T07:32:04.918Z,1013.7
2022-08-07T07:33:04.269Z,1013.6
2022-08-07T07:34:04.252Z,1013.6
2022-08-07T07:35:04.270Z,1013.7
2022-08-07T07:37:21.958Z,1013.6
2022-08-07T07:38:02.599Z,1013.6
2022-08-07T07:38:08.969Z,1013.6
2022-08-07T07:39:04.286Z,1013.6
2022-08-07T07:40:04.318Z,1013.5
2022-08-07T07:41:04.239Z,1013.6
2022-08-07T07:42:13.681Z,1013.5
2022-08-07T07:43:11.730Z,1013.5
2022-08-07T07:44:17.435Z,1013.5
2022-08-07T07:45:04.244Z,1013.5
2022-08-07T07:46:37.173Z,1013.5
2022-08-07T07:47:13.964Z,1013.6
2022-08-07T07:48:04.274Z,1013.5
2022-08-07T07:50:15.902Z,1013.6
2022-08-07T07:50:40.204Z,1013.5
2022-08-07T07:51:07.682Z,1013.5
2022-08-07T07:52:04.279Z,1013.5
2022-08-07T07:53:04.239Z,1013.5
2022-08-07T07:54:04.253Z,1013.5
2022-08-07T07:55:04.259Z,1013.5
2022-08-07T07:56:04.269Z,1013.5
2022-08-07T07:57:04.252Z,1013.5
2022-08-07T07:58:04.275Z,1013.5
2022-08-07T07:59:04.237Z,1013.5
2022-08-07T08:00:04.307Z,1013.5
2022-08-07T08:02:02.512Z,1013.5
2022-08-07T08:02:10.707Z,1013.4
2022-08-07T08:03:06.119Z,1013.5
2022-08-07T08:04:09.593Z,1013.4
2022-08-07T08:05:04.262Z,1013.4
2022-08-07T08:06:04.244Z,1013.4
2022-08-07T08:07:07.715Z,1013.4
2022-08-07T08:08:04.409Z,1013.4
2022-08-07T08:09:04.287Z,1013.4
2022-08-07T08:10:05.323Z,1013.4
2022-08-07T08:11:04.264Z,1013.4
2022-08-07T08:12:05.137Z,1013.4
2022-08-07T08:13:04.245Z,1013.4
2022-08-07T08:14:04.247Z,1013.4
2022-08-07T08:15:06.728Z,1013.4
2022-08-07T08:16:04.332Z,1013.4
2022-08-07T08:17:55.655Z,1013.4
2022-08-07T08:18:17.928Z,1013.4
2022-08-07T08:19:09.781Z,1013.4
2022-08-07T08:20:17.253Z,1013.4
2022-08-07T08:21:04.261Z,1013.4
2022-08-07T08:22:04.257Z,1013.4
2022-08-07T08:23:04.252Z,1013.4
2022-08-07T08:24:04.257Z,1013.4
2022-08-07T08:25:09.412Z,1013.4
2022-08-07T08:26:06.855Z,1013.4
2022-08-07T08:27:06.005Z,1013.4
2022-08-07T08:28:04.606Z,1013.3
2022-08-07T08:29:04.293Z,1013.3
2022-08-07T08:30:04.266Z,1013.3
2022-08-07T08:31:05.230Z,1013.4
2022-08-07T08:32:18.172Z,1013.3
2022-08-07T08:33:04.268Z,1013.3
2022-08-07T08:34:04.283Z,1013.3
2022-08-07T08:35:04.256Z,1013.3
2022-08-07T08:36:04.296Z,1013.3
2022-08-07T08:37:04.260Z,1013.3
2022-08-07T08:38:04.866Z,1013.3
2022-08-07T08:39:04.339Z,1013.3
2022-08-07T08:40:04.561Z,1013.3
2022-08-07T08:41:04.271Z,1013.3
2022-08-07T08:42:04.271Z,1013.3
2022-08-07T08:43:04.253Z,1013.3
2022-08-07T08:44:33.242Z,1013.3
2022-08-07T08:45:04.576Z,1013.3
2022-08-07T08:46:04.515Z,1013.3
2022-08-07T08:47:04.429Z,1013.3
2022-08-07T08:48:04.434Z,1013.3
2022-08-07T08:49:05.015Z,1013.2
2022-08-07T08:50:05.392Z,1013.3
2022-08-07T08:51:14.699Z,1013.3
2022-08-07T08:52:14.359Z,1013.3
2022-08-07T08:53:04.429Z,1013.2
2022-08-07T08:54:04.451Z,1013.3
2022-08-07T08:55:07.574Z,1013.2
2022-08-07T08:56:04.437Z,1013.2
2022-08-07T08:57:04.446Z,1013.1
2022-08-07T08:58:04.446Z,1013.2
2022-08-07T08:59:06.663Z,1013.2
2022-08-07T09:00:04.434Z,1013.3
2022-08-07T09:01:14.537Z,1013.2
2022-08-07T09:02:04.447Z,1013.3
2022-08-07T09:03:07.511Z,1013.2
2022-08-07T09:04:04.422Z,1013.1
2022-08-07T09:05:04.444Z,1013.1
2022-08-07T09:06:04.439Z,1013.1
2022-08-07T09:07:04.423Z,1013.1
2022-08-07T09:08:04.426Z,1013.1
2022-08-07T09:09:09.405Z,1013.1
2022-08-07T09:10:04.425Z,1013.1
2022-08-07T09:11:04.468Z,1013.0
2022-08-07T09:12:20.129Z,1013.1
2022-08-07T09:13:04.500Z,1013.0
2022-08-07T09:14:04.494Z,1013.0
2022-08-07T09:16:24.755Z,1013.0
2022-08-07T09:16:33.657Z,1013.0
2022-08-07T09:17:04.649Z,1013.0
2022-08-07T09:18:11.535Z,1013.0
2022-08-07T09:19:07.277Z,1013.0
2022-08-07T09:20:09.328Z,1013.0
2022-08-07T09:21:04.488Z,1012.9
2022-08-07T09:24:28.121Z,1013.0
2022-08-07T09:24:55.487Z,1013.0
2022-08-07T09:25:11.936Z,1013.0
2022-08-07T09:26:04.497Z,1013.0
2022-08-07T09:27:09.022Z,1013.0
2022-08-07T09:28:04.501Z,1013.0
2022-08-07T09:30:04.532Z,1013.0
2022-08-07T09:30:38.708Z,1012.9
2022-08-07T09:31:05.917Z,1012.9
2022-08-07T09:32:04.355Z,1012.9
2022-08-07T09:33:05.253Z,1012.9
2022-08-07T09:34:04.349Z,1012.8
2022-08-07T09:35:04.785Z,1012.9
2022-08-07T09:36:06.851Z,1012.8
2022-08-07T09:37:04.398Z,1012.8
2022-08-07T09:38:04.357Z,1012.8
2022-08-07T09:39:06.290Z,1012.9
2022-08-07T09:40:04.364Z,1012.9
2022-08-07T09:41:04.348Z,1012.9
2022-08-07T09:42:07.619Z,1012.9
2022-08-07T09:43:04.364Z,1012.8
2022-08-07T09:44:10.243Z,1012.8
2022-08-07T09:47:25.582Z,1012.8
2022-08-07T09:48:01.674Z,1012.7
2022-08-07T09:48:11.682Z,1012.7
2022-08-07T09:50:02.770Z,1012.7
2022-08-07T09:50:22.235Z,1012.7
2022-08-07T09:51:05.356Z,1012.7
2022-08-07T09:52:16.462Z,1012.7
2022-08-07T09:53:04.418Z,1012.7
2022-08-07T09:54:04.392Z,1012.6
2022-08-07T09:55:04.375Z,1012.6
2022-08-07T09:56:05.262Z,1012.6
2022-08-07T09:57:04.349Z,1012.6
2022-08-07T09:58:04.384Z,1012.6
2022-08-07T09:59:07.812Z,1012.5
2022-08-07T10:00:04.365Z,1012.6
2022-08-07T10:01:08.479Z,1012.5
2022-08-07T10:02:04.345Z,1012.5
2022-08-07T10:03:08.081Z,1012.5
2022-08-07T10:04:13.897Z,1012.5
2022-08-07T10:05:12.607Z,1012.5
2022-08-07T10:06:11.813Z,1012.5
2022-08-07T10:07:04.352Z,1012.4
2022-08-07T10:08:04.796Z,1012.4
2022-08-07T10:09:04.399Z,1012.4
2022-08-07T10:10:04.430Z,1012.4
2022-08-07T10:11:59.959Z,1012.4
2022-08-07T10:12:16.690Z,1012.3
2022-08-07T10:13:04.352Z,1012.3
2022-08-07T10:14:04.298Z,1012.4
2022-08-07T10:15:04.326Z,1012.3
2022-08-07T10:16:04.913Z,1012.3
2022-08-07T10:18:01.494Z,1012.3
2022-08-07T10:18:07.173Z,1012.3
2022-08-07T10:19:04.479Z,1012.3
2022-08-07T10:20:05.522Z,1012.3
2022-08-07T10:21:04.479Z,1012.3
2022-08-07T10:22:16.282Z,1012.3
2022-08-07T10:23:07.548Z,1012.2
2022-08-07T10:24:08.756Z,1012.2
2022-08-07T10:25:04.617Z,1012.2
2022-08-07T10:26:04.477Z,1012.2
2022-08-07T10:27:10.307Z,1012.1
2022-08-07T10:28:04.492Z,1012.2
2022-08-07T10:29:04.492Z,1012.1
2022-08-07T10:30:04.521Z,1012.1
2022-08-07T10:31:06.017Z,1012.1
2022-08-07T10:32:04.565Z,1012.1
2022-08-07T10:33:04.509Z,1012.1
2022-08-07T10:34:15.493Z,1012.0
2022-08-07T10:35:09.087Z,1012.0
2022-08-07T10:36:11.318Z,1012.0
2022-08-07T10:37:04.831Z,1012.0
2022-08-07T10:38:20.910Z,1012.0
2022-08-07T10:39:05.511Z,1012.0
2022-08-07T10:40:09.184Z,1012.0
2022-08-07T10:41:04.513Z,1011.9
2022-08-07T10:42:20.704Z,1011.9
2022-08-07T10:43:04.491Z,1011.9
2022-08-07T10:44:07.555Z,1011.8
2022-08-07T10:45:04.487Z,1011.7
2022-08-07T10:46:04.479Z,1011.8
2022-08-07T10:47:11.497Z,1011.9
2022-08-07T10:48:04.913Z,1011.9
2022-08-07T10:49:05.839Z,1012.0
2022-08-07T10:50:04.489Z,1011.9
2022-08-07T10:51:04.504Z,1011.9
2022-08-07T10:52:13.375Z,1011.9
2022-08-07T10:53:08.088Z,1011.9
2022-08-07T10:54:04.534Z,1012.0
2022-08-07T10:55:20.925Z,1011.8
2022-08-07T10:56:04.955Z,1011.9
2022-08-07T10:57:04.662Z,1011.8
2022-08-07T10:58:04.502Z,1011.8
2022-08-07T10:59:04.696Z,1011.8
2022-08-07T11:00:04.571Z,1011.8
2022-08-07T11:01:05.371Z,1011.8
2022-08-07T11:02:11.969Z,1011.8
2022-08-07T11:03:04.624Z,1011.8
2022-08-07T11:04:11.149Z,1011.8
2022-08-07T11:05:05.490Z,1011.8
2022-08-07T11:07:59.326Z,1011.8
2022-08-07T11:08:16.453Z,1011.7
2022-08-07T11:09:11.325Z,1011.7
2022-08-07T11:10:07.861Z,1011.7
2022-08-07T11:11:04.552Z,1011.7
2022-08-07T11:12:11.242Z,1011.7
2022-08-07T11:13:42.257Z,1011.8
2022-08-07T11:14:43.824Z,1011.7
2022-08-07T11:15:17.515Z,1011.7
2022-08-07T11:16:04.060Z,1011.8
2022-08-07T11:17:22.986Z,1011.8
2022-08-07T11:18:04.686Z,1011.7
2022-08-07T11:19:04.636Z,1011.7
2022-08-07T11:20:04.647Z,1011.8
2022-08-07T11:21:04.624Z,1011.6
2022-08-07T11:22:04.622Z,1011.6
2022-08-07T11:23:04.627Z,1011.6
2022-08-07T11:24:06.155Z,1011.6
2022-08-07T11:25:07.351Z,1011.6
2022-08-07T11:26:06.413Z,1011.5
2022-08-07T11:27:04.792Z,1011.5
2022-08-07T11:28:04.893Z,1011.5
2022-08-07T11:29:05.511Z,1011.5
2022-08-07T11:30:17.929Z,1011.5
2022-08-07T11:31:08.700Z,1011.5
2022-08-07T11:32:04.632Z,1011.5
2022-08-07T11:33:08.109Z,1011.5
2022-08-07T11:34:04.633Z,1011.5
2022-08-07T11:35:04.648Z,1011.5
2022-08-07T11:36:08.387Z,1011.5
2022-08-07T11:37:04.628Z,1011.5
2022-08-07T11:38:12.407Z,1011.5
2022-08-07T11:39:04.693Z,1011.5
2022-08-07T11:40:04.706Z,1011.5
2022-08-07T11:41:04.637Z,1011.5
2022-08-07T11:42:04.686Z,1011.4
2022-08-07T11:43:04.727Z,1011.4
2022-08-07T11:44:12.162Z,1011.4
2022-08-07T11:45:04.664Z,1011.3
2022-08-07T11:46:04.654Z,1011.4
2022-08-07T11:47:04.669Z,1011.4
2022-08-07T11:48:13.793Z,1011.4
2022-08-07T11:49:51.493Z,1011.3
2022-08-07T11:50:35.128Z,1011.3
2022-08-07T11:51:04.647Z,1011.3
2022-08-07T11:52:04.645Z,1011.4
2022-08-07T11:53:05.045Z,1011.3
2022-08-07T11:54:09.747Z,1011.3
2022-08-07T11:55:13.202Z,1011.3
2022-08-07T11:56:09.718Z,1011.4
2022-08-07T11:57:04.676Z,1011.4
2022-08-07T11:58:04.780Z,1011.4
2022-08-07T11:59:04.673Z,1011.5
2022-08-07T12:00:18.658Z,1011.3
2022-08-07T12:01:05.807Z,1011.4
2022-08-07T12:03:46.344Z,1011.4
2022-08-07T12:03:50.847Z,1011.4
2022-08-07T12:04:04.638Z,1011.3
2022-08-07T12:05:04.688Z,1011.3
2022-08-07T12:06:36.938Z,1011.3
2022-08-07T12:07:10.093Z,1011.3
2022-08-07T12:08:04.889Z,1011.3
2022-08-07T12:09:04.669Z,1011.3
2022-08-07T12:10:05.818Z,1011.3
2022-08-07T12:11:20.796Z,1011.3
2022-08-07T12:12:10.450Z,1011.3
2022-08-07T12:13:11.654Z,1011.3
2022-08-07T12:14:04.653Z,1011.3
2022-08-07T12:15:04.648Z,1011.3
2022-08-07T12:16:09.061Z,1011.3
2022-08-07T12:17:04.681Z,1011.3
2022-08-07T12:18:08.046Z,1011.3
2022-08-07T12:19:04.823Z,1011.3
2022-08-07T12:20:08.839Z,1011.3
2022-08-07T12:21:04.652Z,1011.3
2022-08-07T12:22:38.781Z,1011.3
2022-08-07T12:23:08.999Z,1011.2
2022-08-07T12:24:06.882Z,1011.2
2022-08-07T12:25:07.785Z,1011.2
2022-08-07T12:26:23.565Z,1011.1
2022-08-07T12:27:04.654Z,1011.2
2022-08-07T12:28:10.372Z,1011.2
2022-08-07T12:29:04.669Z,1011.2
2022-08-07T12:30:04.672Z,1011.1
2022-08-07T12:31:04.651Z,1011.1
2022-08-07T12:32:04.915Z,1011.1
2022-08-07T12:33:18.641Z,1011.1
2022-08-07T12:34:04.774Z,1011.1